Coonabarabran Namoi Street, Australia
Current Conditions -  °F | °C
As of 2:30 AM on Sunday 23 Nov 2014 (Local Time) from YSDU Reporting Station
Clear Clear  
Wind Chill: 72°   Ceiling: Unl
Heat Index: 72°   Visibility: 6mi
Dew Point: 52°   Wind: 0mph
Humidity: 50%   Direction: NA
Pressure: 29.83"   Gusts: NA
Location:  31.27°S, 149.27°E
Report Text: YSDU 221530Z AUTO 00000KT 9999 // NCD 22/11 Q1010
Loading
Personal Weather Stations






























Interactive Weather Map New forecast layout! Learn more

10-Day Weather Forecast

Advertisements
Track Severe Weather on mobile